createdAt,value
2023-03-06T14:58:28.314Z,99423.66
2023-03-06T15:01:37.620Z,99421.00
2023-03-06T15:04:52.661Z,99423.00
2023-03-06T15:12:25.678Z,99421.47
2023-03-06T15:15:31.729Z,99423.47
2023-03-06T15:18:39.028Z,99416.63
2023-03-06T15:21:55.076Z,99418.12
2023-03-06T15:25:14.944Z,99411.75
2023-03-06T15:28:38.805Z,99406.59
2023-03-06T15:31:43.719Z,99403.44
2023-03-06T15:34:46.776Z,99401.28
2023-03-06T15:37:49.595Z,99401.16
2023-03-06T15:40:57.672Z,99404.00
2023-03-06T15:44:02.745Z,99405.16
2023-03-06T15:47:09.162Z,99407.69
2023-03-06T15:50:20.864Z,99401.84
2023-03-06T15:53:24.427Z,99401.31
2023-03-06T15:56:34.418Z,99409.34
2023-03-06T15:59:44.092Z,99418.00
2023-03-06T16:02:47.182Z,99420.66
2023-03-06T16:05:50.173Z,99424.78
2023-03-06T16:08:53.206Z,99421.13
2023-03-06T16:11:56.212Z,99418.59
2023-03-06T16:15:01.501Z,99423.75
2023-03-06T16:18:06.281Z,99432.56
2023-03-06T16:21:08.922Z,99425.91
2023-03-06T16:24:15.899Z,99430.91
2023-03-06T16:27:19.867Z,99434.25
2023-03-06T16:30:25.313Z,99430.72
2023-03-06T16:33:28.122Z,99438.03
2023-03-06T16:36:31.600Z,99440.66
2023-03-06T16:39:34.293Z,99439.31
2023-03-06T16:42:37.374Z,99447.97
2023-03-06T16:45:41.995Z,99436.81
2023-03-06T16:48:45.309Z,99437.31
2023-03-06T16:51:48.870Z,99436.16
2023-03-06T16:54:51.937Z,99439.75
2023-03-06T16:57:55.079Z,99438.09
2023-03-06T17:00:58.194Z,99446.94
2023-03-06T17:04:01.022Z,99447.00
